地図

経路データ

SID SEASON NUMBER BASIN SUBBASIN NAME ISO_TIME NATURE LAT LON WMO_WIND WMO_PRES WMO_AGENCY TRACK_TYPE DIST2LAND LANDFALL IFLAG USA_AGENCY USA_ATCF_ID USA_LAT USA_LON USA_RECORD USA_STATUS USA_WIND USA_PRES USA_SSHS USA_R34_NE USA_R34_SE USA_R34_SW USA_R34_NW USA_R50_NE USA_R50_SE USA_R50_SW USA_R50_NW USA_R64_NE USA_R64_SE USA_R64_SW USA_R64_NW USA_POCI USA_ROCI USA_RMW USA_EYE TOKYO_LAT TOKYO_LON TOKYO_GRADE TOKYO_WIND TOKYO_PRES TOKYO_R50_DIR TOKYO_R50_LONG TOKYO_R50_SHORT TOKYO_R30_DIR TOKYO_R30_LONG TOKYO_R30_SHORT TOKYO_LAND CMA_LAT CMA_LON CMA_CAT CMA_WIND CMA_PRES HKO_LAT HKO_LON HKO_CAT HKO_WIND HKO_PRES NEWDELHI_LAT NEWDELHI_LON NEWDELHI_GRADE NEWDELHI_WIND NEWDELHI_PRES NEWDELHI_CI NEWDELHI_DP NEWDELHI_POCI REUNION_LAT REUNION_LON REUNION_TYPE REUNION_WIND REUNION_PRES REUNION_TNUM REUNION_CI REUNION_RMW REUNION_R34_NE REUNION_R34_SE REUNION_R34_SW REUNION_R34_NW REUNION_R50_NE REUNION_R50_SE REUNION_R50_SW REUNION_R50_NW REUNION_R64_NE REUNION_R64_SE REUNION_R64_SW REUNION_R64_NW BOM_LAT BOM_LON BOM_TYPE BOM_WIND BOM_PRES BOM_TNUM BOM_CI BOM_RMW BOM_R34_NE BOM_R34_SE BOM_R34_SW BOM_R34_NW BOM_R50_NE BOM_R50_SE BOM_R50_SW BOM_R50_NW BOM_R64_NE BOM_R64_SE BOM_R64_SW BOM_R64_NW BOM_ROCI BOM_POCI BOM_EYE BOM_POS_METHOD BOM_PRES_METHOD NADI_LAT NADI_LON NADI_CAT NADI_WIND NADI_PRES WELLINGTON_LAT WELLINGTON_LON WELLINGTON_WIND WELLINGTON_PRES DS824_LAT DS824_LON DS824_STAGE DS824_WIND DS824_PRES TD9636_LAT TD9636_LON TD9636_STAGE TD9636_WIND TD9636_PRES TD9635_LAT TD9635_LON TD9635_WIND TD9635_PRES TD9635_ROCI NEUMANN_LAT NEUMANN_LON NEUMANN_CLASS NEUMANN_WIND NEUMANN_PRES MLC_LAT MLC_LON MLC_CLASS MLC_WIND MLC_PRES USA_GUST BOM_GUST BOM_GUST_PER REUNION_GUST REUNION_GUST_PER USA_SEAHGT USA_SEARAD_NE USA_SEARAD_SE USA_SEARAD_SW USA_SEARAD_NW STORM_SPEED STORM_DIR
1918190N17112 1918 39 WP MM NOT_NAMED 1918-07-08 22:00:00 NR 17.3000 111.600 main 201 201 __________O___ -1 17.3000 111.600 7 2 0
1918190N17112 1918 39 WP MM NOT_NAMED 1918-07-09 00:00:00 NR 17.3468 111.575 main 201 186 __________P___ -1 17.3468 111.575 7 2 334
1918190N17112 1918 39 WP MM NOT_NAMED 1918-07-09 03:00:00 NR 17.4181 111.535 main 186 177 __________P___ -1 17.4181 111.535 7 2 328
1918190N17112 1918 39 WP MM NOT_NAMED 1918-07-09 06:00:00 NR 17.4926 111.486 main 177 162 __________P___ -1 17.4926 111.486 7 2 326
1918190N17112 1918 39 WP MM NOT_NAMED 1918-07-09 09:00:00 NR 17.5721 111.424 main 162 162 __________P___ -1 17.5721 111.424 7 2 325
1918190N17112 1918 39 WP MM NOT_NAMED 1918-07-09 10:00:00 NR 17.6000 111.400 main 162 146 __________O___ -1 17.6000 111.400 7 2 317
1918190N17112 1918 39 WP MM NOT_NAMED 1918-07-09 12:00:00 NR 17.6583 111.345 main 146 131 __________P___ -1 17.6583 111.345 7 3 317
1918190N17112 1918 39 WP MM NOT_NAMED 1918-07-09 15:00:00 NR 17.7521 111.249 main 131 116 __________P___ -1 17.7521 111.249 7 3 316
1918190N17112 1918 39 WP MM NOT_NAMED 1918-07-09 18:00:00 NR 17.8533 111.144 main 116 100 __________P___ -1 17.8533 111.144 7 3 316
1918190N17112 1918 39 WP MM NOT_NAMED 1918-07-09 21:00:00 NR 17.9621 111.036 main 100 100 __________P___ -1 17.9621 111.036 7 3 317
1918190N17112 1918 39 WP MM NOT_NAMED 1918-07-09 22:00:00 NR 18.0000 111.000 main 100 85 __________O___ -1 18.0000 111.000 7 3 318
1918190N17112 1918 39 WP MM NOT_NAMED 1918-07-10 00:00:00 NR 18.0724 110.936 main 85 70 __________P___ -1 18.0724 110.936 7 3 321
1918190N17112 1918 39 WP MM NOT_NAMED 1918-07-10 03:00:00 NR 18.1871 110.840 main 70 54 __________P___ -1 18.1871 110.840 7 3 322
1918190N17112 1918 39 WP MM NOT_NAMED 1918-07-10 06:00:00 NR 18.3121 110.741 main 54 30 __________P___ -1 18.3121 110.741 7 3 324
1918190N17112 1918 39 WP MM NOT_NAMED 1918-07-10 09:00:00 NR 18.4504 110.637 main 30 30 __________P___ -1 18.4504 110.637 7 3 325
1918190N17112 1918 39 WP MM NOT_NAMED 1918-07-10 10:00:00 NR 18.5000 110.600 main 30 15 __________O___ -1 18.5000 110.600 7 4 325
1918190N17112 1918 39 WP MM NOT_NAMED 1918-07-10 12:00:00 NR 18.6131 110.517 main 15 0 __________P___ -1 18.6131 110.517 7 4 326
1918190N17112 1918 39 WP MM NOT_NAMED 1918-07-10 15:00:00 NR 18.7956 110.387 main 0 0 __________P___ -1 18.7956 110.387 7 4 326
1918190N17112 1918 39 WP MM NOT_NAMED 1918-07-10 18:00:00 NR 18.9795 110.256 main 0 0 __________P___ -1 18.9795 110.256 7 4 326
1918190N17112 1918 39 WP MM NOT_NAMED 1918-07-10 21:00:00 NR 19.1493 110.136 main 0 0 __________P___ -1 19.1493 110.136 7 4 326
1918190N17112 1918 39 WP MM NOT_NAMED 1918-07-10 22:00:00 NR 19.2000 110.100 main 0 0 __________O___ -1 19.2000 110.100 7 3 323
1918190N17112 1918 39 WP MM NOT_NAMED 1918-07-11 00:00:00 NR 19.2838 110.036 main 0 0 __________P___ -1 19.2838 110.036 7 3 324
1918190N17112 1918 39 WP MM NOT_NAMED 1918-07-11 03:00:00 NR 19.3905 109.952 main 0 0 __________P___ -1 19.3905 109.952 7 2 324
1918190N17112 1918 39 WP MM NOT_NAMED 1918-07-11 06:00:00 NR 19.4829 109.881 main 0 0 __________P___ -1 19.4829 109.881 7 2 325
1918190N17112 1918 39 WP MM NOT_NAMED 1918-07-11 09:00:00 NR 19.5704 109.819 main 0 0 __________P___ -1 19.5704 109.819 7 2 325
1918190N17112 1918 39 WP MM NOT_NAMED 1918-07-11 10:00:00 NR 19.6000 109.800 main 0 0 __________O___ -1 19.6000 109.800 7 2 329
1918190N17112 1918 39 WP MM NOT_NAMED 1918-07-11 12:00:00 NR 19.6667 109.758 main 0 0 __________P___ -1 19.6667 109.758 7 2 331
1918190N17112 1918 39 WP MM NOT_NAMED 1918-07-11 15:00:00 NR 19.7667 109.702 main 0 0 __________P___ -1 19.7667 109.702 7 2 333
1918190N17112 1918 39 WP MM NOT_NAMED 1918-07-11 18:00:00 NR 19.8667 109.653 main 0 0 __________P___ -1 19.8667 109.653 7 2 335
1918190N17112 1918 39 WP MM NOT_NAMED 1918-07-11 21:00:00 NR 19.9667 109.612 main 11 11 __________P___ -1 19.9667 109.612 7 2 339
1918190N17112 1918 39 WP MM NOT_NAMED 1918-07-11 22:00:00 NR 20.0000 109.600 main 11 11 __________O___ -1 20.0000 109.600 7 2 336
1918190N17112 1918 39 WP MM NOT_NAMED 1918-07-12 00:00:00 NR 20.0693 109.578 main 22 22 __________P___ -1 20.0693 109.578 7 2 348
1918190N17112 1918 39 WP MM NOT_NAMED 1918-07-12 03:00:00 NR 20.1733 109.550 main 31 33 __________P___ -1 20.1733 109.550 7 2 349
1918190N17112 1918 39 WP MM NOT_NAMED 1918-07-12 06:00:00 NR 20.2746 109.528 main 38 33 __________P___ -1 20.2746 109.528 7 2 347
1918190N17112 1918 39 WP MM NOT_NAMED 1918-07-12 09:00:00 NR 20.3700 109.507 main 33 33 __________P___ -1 20.3700 109.507 7 2 0
1918190N17112 1918 39 WP MM NOT_NAMED 1918-07-12 10:00:00 NR 20.4000 109.500 main 33 31 __________O___ -1 20.4000 109.500 7 2 349
1918190N17112 1918 39 WP MM NOT_NAMED 1918-07-12 12:00:00 NR 20.4568 109.485 main 31 31 __________P___ -1 20.4568 109.485 7 2 341
1918190N17112 1918 39 WP MM NOT_NAMED 1918-07-12 15:00:00 NR 20.5353 109.461 main 31 30 __________P___ -1 20.5353 109.461 7 2 343
1918190N17112 1918 39 WP MM NOT_NAMED 1918-07-12 18:00:00 NR 20.6079 109.435 main 38 33 __________P___ -1 20.6079 109.435 7 2 338
1918190N17112 1918 39 WP MM NOT_NAMED 1918-07-12 21:00:00 NR 20.6772 109.409 main 33 33 __________P___ -1 20.6772 109.409 7 1 342
1918190N17112 1918 39 WP MM NOT_NAMED 1918-07-12 22:00:00 NR 20.7000 109.400 main 33 __________O___ -1 20.7000 109.400 7 1 0

デジタル台風データ・検索

IBTrACS Databaseについて

本データベースは、米国NOAAが公開する1842年以降の世界の熱帯低気圧のベストトラックデータアーカイブInternational Best Track Archive for Climate Stewardship (IBTrACS)を、ウェブで閲覧しやすい形式に変換したものです。

最終更新日:2021-10-19